sensor_id;sensor_type;location;lat;lon;timestamp;temperature;humidity
5196;DHT22;2617;51.006;12.436;2022-11-15T00:01:50;3.30;99.90
5196;DHT22;2617;51.006;12.436;2022-11-15T00:06:52;3.40;99.90
5196;DHT22;2617;51.006;12.436;2022-11-15T00:11:53;3.60;99.90
5196;DHT22;2617;51.006;12.436;2022-11-15T00:16:55;3.50;99.90
5196;DHT22;2617;51.006;12.436;2022-11-15T00:21:57;3.50;99.90
5196;DHT22;2617;51.006;12.436;2022-11-15T00:26:58;3.40;99.90
5196;DHT22;2617;51.006;12.436;2022-11-15T00:32:00;3.40;99.90
5196;DHT22;2617;51.006;12.436;2022-11-15T00:37:02;3.40;99.90
5196;DHT22;2617;51.006;12.436;2022-11-15T00:42:04;3.40;99.90
5196;DHT22;2617;51.006;12.436;2022-11-15T00:47:05;3.50;99.90
5196;DHT22;2617;51.006;12.436;2022-11-15T00:52:07;3.70;99.90
5196;DHT22;2617;51.006;12.436;2022-11-15T00:57:09;3.80;99.90
5196;DHT22;2617;51.006;12.436;2022-11-15T01:02:11;3.90;99.90
5196;DHT22;2617;51.006;12.436;2022-11-15T01:07:12;4.00;99.90
5196;DHT22;2617;51.006;12.436;2022-11-15T01:12:14;4.20;99.90
5196;DHT22;2617;51.006;12.436;2022-11-15T01:17:16;4.30;99.90
5196;DHT22;2617;51.006;12.436;2022-11-15T01:22:19;4.30;99.90
5196;DHT22;2617;51.006;12.436;2022-11-15T01:27:20;4.20;99.90
5196;DHT22;2617;51.006;12.436;2022-11-15T01:32:23;4.30;99.90
5196;DHT22;2617;51.006;12.436;2022-11-15T01:37:24;4.30;99.90
5196;DHT22;2617;51.006;12.436;2022-11-15T01:42:26;4.40;99.90
5196;DHT22;2617;51.006;12.436;2022-11-15T01:47:30;4.50;99.90
5196;DHT22;2617;51.006;12.436;2022-11-15T01:52:31;4.10;99.90
5196;DHT22;2617;51.006;12.436;2022-11-15T01:57:33;3.90;99.90
5196;DHT22;2617;51.006;12.436;2022-11-15T02:02:35;3.90;99.90
5196;DHT22;2617;51.006;12.436;2022-11-15T02:07:36;3.80;99.90
5196;DHT22;2617;51.006;12.436;2022-11-15T02:12:38;3.70;99.90
5196;DHT22;2617;51.006;12.436;2022-11-15T02:17:48;3.70;99.90
5196;DHT22;2617;51.006;12.436;2022-11-15T02:23:00;3.70;99.90
5196;DHT22;2617;51.006;12.436;2022-11-15T02:33:31;3.40;99.90
5196;DHT22;2617;51.006;12.436;2022-11-15T02:38:52;3.30;99.90
5196;DHT22;2617;51.006;12.436;2022-11-15T02:43:57;3.30;99.90
5196;DHT22;2617;51.006;12.436;2022-11-15T02:48:58;3.30;99.90
5196;DHT22;2617;51.006;12.436;2022-11-15T02:53:59;3.40;99.90
5196;DHT22;2617;51.006;12.436;2022-11-15T02:59:19;3.50;99.90
5196;DHT22;2617;51.006;12.436;2022-11-15T03:04:23;3.70;99.90
5196;DHT22;2617;51.006;12.436;2022-11-15T03:14:34;3.90;99.90
5196;DHT22;2617;51.006;12.436;2022-11-15T03:19:45;4.00;99.90
5196;DHT22;2617;51.006;12.436;2022-11-15T03:24:46;4.10;99.90
5196;DHT22;2617;51.006;12.436;2022-11-15T03:29:49;4.30;99.90
5196;DHT22;2617;51.006;12.436;2022-11-15T03:34:57;4.40;99.90
5196;DHT22;2617;51.006;12.436;2022-11-15T03:40:00;4.50;99.90
5196;DHT22;2617;51.006;12.436;2022-11-15T03:50:23;4.70;99.90
5196;DHT22;2617;51.006;12.436;2022-11-15T03:55:25;4.70;99.90
5196;DHT22;2617;51.006;12.436;2022-11-15T04:00:27;4.50;99.90
5196;DHT22;2617;51.006;12.436;2022-11-15T04:05:28;4.50;99.90
5196;DHT22;2617;51.006;12.436;2022-11-15T04:10:30;4.40;99.90
5196;DHT22;2617;51.006;12.436;2022-11-15T04:15:32;4.40;99.90
5196;DHT22;2617;51.006;12.436;2022-11-15T04:20:33;4.40;99.90
5196;DHT22;2617;51.006;12.436;2022-11-15T04:25:41;4.50;99.90
5196;DHT22;2617;51.006;12.436;2022-11-15T04:30:43;4.50;99.90
5196;DHT22;2617;51.006;12.436;2022-11-15T04:35:45;4.50;99.90
5196;DHT22;2617;51.006;12.436;2022-11-15T04:40:46;4.60;99.90
5196;DHT22;2617;51.006;12.436;2022-11-15T04:45:48;4.60;99.90
5196;DHT22;2617;51.006;12.436;2022-11-15T04:50:51;4.80;99.90
5196;DHT22;2617;51.006;12.436;2022-11-15T04:55:53;4.80;99.90
5196;DHT22;2617;51.006;12.436;2022-11-15T05:00:54;5.00;99.90
5196;DHT22;2617;51.006;12.436;2022-11-15T05:05:56;5.20;99.90
5196;DHT22;2617;51.006;12.436;2022-11-15T05:10:58;5.30;99.90
5196;DHT22;2617;51.006;12.436;2022-11-15T05:16:00;5.30;99.90
5196;DHT22;2617;51.006;12.436;2022-11-15T05:21:05;5.10;99.90
5196;DHT22;2617;51.006;12.436;2022-11-15T05:26:07;5.10;99.90
5196;DHT22;2617;51.006;12.436;2022-11-15T05:31:10;5.10;99.90
5196;DHT22;2617;51.006;12.436;2022-11-15T05:36:20;5.00;99.90
5196;DHT22;2617;51.006;12.436;2022-11-15T05:41:21;5.00;99.90
5196;DHT22;2617;51.006;12.436;2022-11-15T05:46:22;5.00;99.90
5196;DHT22;2617;51.006;12.436;2022-11-15T05:51:24;5.00;99.90
5196;DHT22;2617;51.006;12.436;2022-11-15T05:56:26;5.00;99.90
5196;DHT22;2617;51.006;12.436;2022-11-15T06:01:28;5.00;99.90
5196;DHT22;2617;51.006;12.436;2022-11-15T06:06:30;5.10;99.90
5196;DHT22;2617;51.006;12.436;2022-11-15T06:11:31;5.20;99.90
5196;DHT22;2617;51.006;12.436;2022-11-15T06:16:33;5.40;99.90
5196;DHT22;2617;51.006;12.436;2022-11-15T06:21:35;5.40;99.90
5196;DHT22;2617;51.006;12.436;2022-11-15T06:26:37;5.50;99.90
5196;DHT22;2617;51.006;12.436;2022-11-15T06:31:39;5.50;99.90
5196;DHT22;2617;51.006;12.436;2022-11-15T06:36:41;5.50;99.90
5196;DHT22;2617;51.006;12.436;2022-11-15T06:41:43;5.60;99.90
5196;DHT22;2617;51.006;12.436;2022-11-15T06:46:45;5.70;99.90
5196;DHT22;2617;51.006;12.436;2022-11-15T06:51:47;5.70;99.90
5196;DHT22;2617;51.006;12.436;2022-11-15T06:56:48;5.70;99.90
5196;DHT22;2617;51.006;12.436;2022-11-15T07:01:50;5.80;99.90
5196;DHT22;2617;51.006;12.436;2022-11-15T07:06:52;5.90;99.90
5196;DHT22;2617;51.006;12.436;2022-11-15T07:11:54;6.00;99.90
5196;DHT22;2617;51.006;12.436;2022-11-15T07:16:56;6.20;99.90
5196;DHT22;2617;51.006;12.436;2022-11-15T07:21:58;6.40;99.90
5196;DHT22;2617;51.006;12.436;2022-11-15T07:26:59;6.50;99.90
5196;DHT22;2617;51.006;12.436;2022-11-15T07:32:02;6.70;99.90
5196;DHT22;2617;51.006;12.436;2022-11-15T07:37:04;6.70;99.90
5196;DHT22;2617;51.006;12.436;2022-11-15T07:42:06;7.00;99.90
5196;DHT22;2617;51.006;12.436;2022-11-15T07:47:14;7.10;99.90
5196;DHT22;2617;51.006;12.436;2022-11-15T07:52:16;7.10;99.90
5196;DHT22;2617;51.006;12.436;2022-11-15T07:57:18;7.30;99.90
5196;DHT22;2617;51.006;12.436;2022-11-15T08:02:20;7.50;99.90
5196;DHT22;2617;51.006;12.436;2022-11-15T08:07:22;7.70;99.90
5196;DHT22;2617;51.006;12.436;2022-11-15T08:12:24;7.80;99.90
5196;DHT22;2617;51.006;12.436;2022-11-15T08:17:26;8.00;99.90
5196;DHT22;2617;51.006;12.436;2022-11-15T08:22:28;8.10;99.90
5196;DHT22;2617;51.006;12.436;2022-11-15T08:27:30;8.30;99.90
5196;DHT22;2617;51.006;12.436;2022-11-15T08:32:31;8.50;99.90
5196;DHT22;2617;51.006;12.436;2022-11-15T08:37:33;8.70;99.90
5196;DHT22;2617;51.006;12.436;2022-11-15T08:42:35;8.80;99.90
5196;DHT22;2617;51.006;12.436;2022-11-15T08:47:37;9.00;99.90
5196;DHT22;2617;51.006;12.436;2022-11-15T08:52:38;9.10;99.90
5196;DHT22;2617;51.006;12.436;2022-11-15T08:57:40;9.30;99.90
5196;DHT22;2617;51.006;12.436;2022-11-15T09:02:42;9.50;99.90
5196;DHT22;2617;51.006;12.436;2022-11-15T09:07:43;9.70;99.90
5196;DHT22;2617;51.006;12.436;2022-11-15T09:12:45;9.90;99.90
5196;DHT22;2617;51.006;12.436;2022-11-15T09:17:47;10.20;99.90
5196;DHT22;2617;51.006;12.436;2022-11-15T09:22:49;10.40;99.90
5196;DHT22;2617;51.006;12.436;2022-11-15T09:27:50;10.50;99.90
5196;DHT22;2617;51.006;12.436;2022-11-15T09:32:52;10.70;99.90
5196;DHT22;2617;51.006;12.436;2022-11-15T09:37:54;10.90;99.90
5196;DHT22;2617;51.006;12.436;2022-11-15T09:53:47;11.40;99.90
5196;DHT22;2617;51.006;12.436;2022-11-15T09:59:04;11.70;99.90
5196;DHT22;2617;51.006;12.436;2022-11-15T10:04:03;11.90;99.90
5196;DHT22;2617;51.006;12.436;2022-11-15T10:09:06;12.10;99.90
5196;DHT22;2617;51.006;12.436;2022-11-15T10:14:14;12.30;99.90
5196;DHT22;2617;51.006;12.436;2022-11-15T10:19:38;12.50;99.90
5196;DHT22;2617;51.006;12.436;2022-11-15T10:24:39;12.80;99.90
5196;DHT22;2617;51.006;12.436;2022-11-15T10:29:43;12.80;99.90
5196;DHT22;2617;51.006;12.436;2022-11-15T10:34:44;12.80;99.90
5196;DHT22;2617;51.006;12.436;2022-11-15T10:39:58;13.10;99.90
5196;DHT22;2617;51.006;12.436;2022-11-15T10:44:48;13.10;99.90
5196;DHT22;2617;51.006;12.436;2022-11-15T10:49:56;13.40;99.90
5196;DHT22;2617;51.006;12.436;2022-11-15T10:54:59;13.70;99.90
5196;DHT22;2617;51.006;12.436;2022-11-15T11:00:03;13.90;99.90
5196;DHT22;2617;51.006;12.436;2022-11-15T11:05:03;14.00;99.90
5196;DHT22;2617;51.006;12.436;2022-11-15T11:10:19;14.10;99.90
5196;DHT22;2617;51.006;12.436;2022-11-15T11:15:22;14.20;99.90
5196;DHT22;2617;51.006;12.436;2022-11-15T11:20:30;14.30;99.90
5196;DHT22;2617;51.006;12.436;2022-11-15T11:25:43;14.40;99.90
5196;DHT22;2617;51.006;12.436;2022-11-15T11:36:03;14.60;99.90
5196;DHT22;2617;51.006;12.436;2022-11-15T11:41:15;14.80;99.90
5196;DHT22;2617;51.006;12.436;2022-11-15T11:46:42;14.90;99.90
5196;DHT22;2617;51.006;12.436;2022-11-15T11:51:43;15.10;99.90
5196;DHT22;2617;51.006;12.436;2022-11-15T11:56:44;15.30;99.90
5196;DHT22;2617;51.006;12.436;2022-11-15T12:01:46;15.30;99.90
5196;DHT22;2617;51.006;12.436;2022-11-15T12:06:53;15.40;99.90
5196;DHT22;2617;51.006;12.436;2022-11-15T12:12:09;15.50;99.90
5196;DHT22;2617;51.006;12.436;2022-11-15T12:17:11;15.60;99.50
5196;DHT22;2617;51.006;12.436;2022-11-15T12:22:19;15.70;99.60
5196;DHT22;2617;51.006;12.436;2022-11-15T12:27:21;15.80;99.10
5196;DHT22;2617;51.006;12.436;2022-11-15T12:32:28;15.80;98.90
5196;DHT22;2617;51.006;12.436;2022-11-15T12:43:01;16.00;97.90
5196;DHT22;2617;51.006;12.436;2022-11-15T12:53:33;16.10;96.80
5196;DHT22;2617;51.006;12.436;2022-11-15T12:58:43;16.00;97.90
5196;DHT22;2617;51.006;12.436;2022-11-15T13:08:51;16.10;98.40
5196;DHT22;2617;51.006;12.436;2022-11-15T13:13:53;16.10;98.70
5196;DHT22;2617;51.006;12.436;2022-11-15T13:18:55;16.10;98.30
5196;DHT22;2617;51.006;12.436;2022-11-15T13:23:58;15.90;98.40
5196;DHT22;2617;51.006;12.436;2022-11-15T13:29:04;15.90;98.40
5196;DHT22;2617;51.006;12.436;2022-11-15T13:34:27;15.80;98.40
5196;DHT22;2617;51.006;12.436;2022-11-15T13:39:30;15.60;98.50
5196;DHT22;2617;51.006;12.436;2022-11-15T13:44:31;15.60;98.40
5196;DHT22;2617;51.006;12.436;2022-11-15T13:49:33;15.50;98.70
5196;DHT22;2617;51.006;12.436;2022-11-15T13:54:35;15.50;99.10
5196;DHT22;2617;51.006;12.436;2022-11-15T13:59:43;15.40;99.50
5196;DHT22;2617;51.006;12.436;2022-11-15T14:09:56;15.20;99.90
5196;DHT22;2617;51.006;12.436;2022-11-15T14:15:00;15.00;99.90
5196;DHT22;2617;51.006;12.436;2022-11-15T14:20:01;14.80;99.90
5196;DHT22;2617;51.006;12.436;2022-11-15T14:25:17;14.50;99.90
5196;DHT22;2617;51.006;12.436;2022-11-15T14:30:18;14.10;99.90
5196;DHT22;2617;51.006;12.436;2022-11-15T14:35:20;14.00;99.90
5196;DHT22;2617;51.006;12.436;2022-11-15T14:40:21;13.90;99.90
5196;DHT22;2617;51.006;12.436;2022-11-15T14:45:23;13.60;99.90
5196;DHT22;2617;51.006;12.436;2022-11-15T14:50:25;13.40;99.90
5196;DHT22;2617;51.006;12.436;2022-11-15T14:55:28;13.20;99.90
5196;DHT22;2617;51.006;12.436;2022-11-15T15:00:30;12.90;99.90
5196;DHT22;2617;51.006;12.436;2022-11-15T15:05:34;12.60;99.90
5196;DHT22;2617;51.006;12.436;2022-11-15T15:10:37;12.60;99.90
5196;DHT22;2617;51.006;12.436;2022-11-15T15:15:37;12.40;99.90
5196;DHT22;2617;51.006;12.436;2022-11-15T15:20:39;12.20;99.90
5196;DHT22;2617;51.006;12.436;2022-11-15T15:25:41;11.90;99.90
5196;DHT22;2617;51.006;12.436;2022-11-15T15:30:42;11.50;99.90
5196;DHT22;2617;51.006;12.436;2022-11-15T15:35:44;11.20;99.90
5196;DHT22;2617;51.006;12.436;2022-11-15T15:40:46;10.90;99.90
5196;DHT22;2617;51.006;12.436;2022-11-15T15:45:48;10.60;99.90
5196;DHT22;2617;51.006;12.436;2022-11-15T15:50:50;10.30;99.90
5196;DHT22;2617;51.006;12.436;2022-11-15T15:55:52;10.10;99.90
5196;DHT22;2617;51.006;12.436;2022-11-15T16:00:53;9.90;99.90
5196;DHT22;2617;51.006;12.436;2022-11-15T16:05:56;9.60;99.90
5196;DHT22;2617;51.006;12.436;2022-11-15T16:10:57;9.50;99.90
5196;DHT22;2617;51.006;12.436;2022-11-15T16:16:00;9.40;99.90
5196;DHT22;2617;51.006;12.436;2022-11-15T16:21:01;9.30;99.90
5196;DHT22;2617;51.006;12.436;2022-11-15T16:26:04;9.20;99.90
5196;DHT22;2617;51.006;12.436;2022-11-15T16:31:07;9.10;99.90
5196;DHT22;2617;51.006;12.436;2022-11-15T16:36:18;8.90;99.90
5196;DHT22;2617;51.006;12.436;2022-11-15T16:41:18;8.70;99.90
5196;DHT22;2617;51.006;12.436;2022-11-15T16:46:23;8.50;99.90
5196;DHT22;2617;51.006;12.436;2022-11-15T16:51:24;8.20;99.90
5196;DHT22;2617;51.006;12.436;2022-11-15T16:56:27;8.20;99.90
5196;DHT22;2617;51.006;12.436;2022-11-15T17:01:30;8.00;99.90
5196;DHT22;2617;51.006;12.436;2022-11-15T17:06:31;7.90;99.90
5196;DHT22;2617;51.006;12.436;2022-11-15T17:11:33;7.80;99.90
5196;DHT22;2617;51.006;12.436;2022-11-15T17:16:35;7.70;99.90
5196;DHT22;2617;51.006;12.436;2022-11-15T17:21:37;7.40;99.90
5196;DHT22;2617;51.006;12.436;2022-11-15T17:26:40;7.30;99.90
5196;DHT22;2617;51.006;12.436;2022-11-15T17:31:42;7.10;99.90
5196;DHT22;2617;51.006;12.436;2022-11-15T17:36:44;7.10;99.90
5196;DHT22;2617;51.006;12.436;2022-11-15T17:41:46;7.00;99.90
5196;DHT22;2617;51.006;12.436;2022-11-15T17:46:48;6.90;99.90
5196;DHT22;2617;51.006;12.436;2022-11-15T17:51:49;6.80;99.90
5196;DHT22;2617;51.006;12.436;2022-11-15T17:56:51;6.70;99.90
5196;DHT22;2617;51.006;12.436;2022-11-15T18:01:53;6.50;99.90
5196;DHT22;2617;51.006;12.436;2022-11-15T18:06:55;6.40;99.90
5196;DHT22;2617;51.006;12.436;2022-11-15T18:11:56;6.40;99.90
5196;DHT22;2617;51.006;12.436;2022-11-15T18:16:58;6.30;99.90
5196;DHT22;2617;51.006;12.436;2022-11-15T18:22:00;6.30;99.90
5196;DHT22;2617;51.006;12.436;2022-11-15T18:27:03;6.20;99.90
5196;DHT22;2617;51.006;12.436;2022-11-15T18:32:05;6.00;99.90
5196;DHT22;2617;51.006;12.436;2022-11-15T18:37:06;5.90;99.90
5196;DHT22;2617;51.006;12.436;2022-11-15T18:42:08;5.80;99.90
5196;DHT22;2617;51.006;12.436;2022-11-15T18:47:10;5.70;99.90
5196;DHT22;2617;51.006;12.436;2022-11-15T18:52:11;5.60;99.90
5196;DHT22;2617;51.006;12.436;2022-11-15T18:57:13;5.50;99.90
5196;DHT22;2617;51.006;12.436;2022-11-15T19:02:15;5.40;99.90
5196;DHT22;2617;51.006;12.436;2022-11-15T19:07:17;5.40;99.90
5196;DHT22;2617;51.006;12.436;2022-11-15T19:12:18;5.30;99.90
5196;DHT22;2617;51.006;12.436;2022-11-15T19:17:20;5.30;99.90
5196;DHT22;2617;51.006;12.436;2022-11-15T19:22:22;5.30;99.90
5196;DHT22;2617;51.006;12.436;2022-11-15T19:27:24;5.30;99.90
5196;DHT22;2617;51.006;12.436;2022-11-15T19:32:26;5.30;99.90
5196;DHT22;2617;51.006;12.436;2022-11-15T19:37:28;5.20;99.90
5196;DHT22;2617;51.006;12.436;2022-11-15T19:42:29;5.20;99.90
5196;DHT22;2617;51.006;12.436;2022-11-15T19:47:32;5.20;99.90
5196;DHT22;2617;51.006;12.436;2022-11-15T19:52:34;5.20;99.90
5196;DHT22;2617;51.006;12.436;2022-11-15T19:57:36;5.10;99.90
5196;DHT22;2617;51.006;12.436;2022-11-15T20:02:37;5.10;99.90
5196;DHT22;2617;51.006;12.436;2022-11-15T20:07:40;5.40;99.90
5196;DHT22;2617;51.006;12.436;2022-11-15T20:12:42;5.40;99.90
5196;DHT22;2617;51.006;12.436;2022-11-15T20:17:43;5.50;99.90
5196;DHT22;2617;51.006;12.436;2022-11-15T20:22:45;5.60;99.90
5196;DHT22;2617;51.006;12.436;2022-11-15T20:27:48;5.70;99.90
5196;DHT22;2617;51.006;12.436;2022-11-15T20:32:49;5.70;99.90
5196;DHT22;2617;51.006;12.436;2022-11-15T20:37:52;5.50;99.90
5196;DHT22;2617;51.006;12.436;2022-11-15T20:42:54;5.50;99.90
5196;DHT22;2617;51.006;12.436;2022-11-15T20:47:56;5.40;99.90
5196;DHT22;2617;51.006;12.436;2022-11-15T20:52:58;5.20;99.90
5196;DHT22;2617;51.006;12.436;2022-11-15T20:58:00;5.20;99.90
5196;DHT22;2617;51.006;12.436;2022-11-15T21:03:02;5.10;99.90
5196;DHT22;2617;51.006;12.436;2022-11-15T21:08:05;5.00;99.90
5196;DHT22;2617;51.006;12.436;2022-11-15T21:13:06;4.90;99.90
5196;DHT22;2617;51.006;12.436;2022-11-15T21:18:08;4.80;99.90
5196;DHT22;2617;51.006;12.436;2022-11-15T21:23:10;4.70;99.90
5196;DHT22;2617;51.006;12.436;2022-11-15T21:28:12;4.70;99.90
5196;DHT22;2617;51.006;12.436;2022-11-15T21:33:13;4.70;99.90
5196;DHT22;2617;51.006;12.436;2022-11-15T21:38:15;4.70;99.90
5196;DHT22;2617;51.006;12.436;2022-11-15T21:43:17;4.80;99.90
5196;DHT22;2617;51.006;12.436;2022-11-15T21:48:18;4.90;99.90
5196;DHT22;2617;51.006;12.436;2022-11-15T21:53:20;4.90;99.90
5196;DHT22;2617;51.006;12.436;2022-11-15T21:58:22;4.90;99.90
5196;DHT22;2617;51.006;12.436;2022-11-15T22:03:24;4.80;99.90
5196;DHT22;2617;51.006;12.436;2022-11-15T22:08:26;4.80;99.90
5196;DHT22;2617;51.006;12.436;2022-11-15T22:13:28;4.70;99.90
5196;DHT22;2617;51.006;12.436;2022-11-15T22:18:30;4.60;99.90
5196;DHT22;2617;51.006;12.436;2022-11-15T22:23:32;4.60;99.90
5196;DHT22;2617;51.006;12.436;2022-11-15T22:28:33;4.50;99.90
5196;DHT22;2617;51.006;12.436;2022-11-15T22:33:36;4.50;99.90
5196;DHT22;2617;51.006;12.436;2022-11-15T22:38:38;4.50;99.90
5196;DHT22;2617;51.006;12.436;2022-11-15T22:43:39;4.50;99.90
5196;DHT22;2617;51.006;12.436;2022-11-15T22:48:41;4.40;99.90
5196;DHT22;2617;51.006;12.436;2022-11-15T22:53:43;4.50;99.90
5196;DHT22;2617;51.006;12.436;2022-11-15T22:58:45;4.60;99.90
5196;DHT22;2617;51.006;12.436;2022-11-15T23:03:47;4.70;99.90
5196;DHT22;2617;51.006;12.436;2022-11-15T23:08:49;4.60;99.90
5196;DHT22;2617;51.006;12.436;2022-11-15T23:13:51;4.60;99.90
5196;DHT22;2617;51.006;12.436;2022-11-15T23:18:55;4.60;99.90
5196;DHT22;2617;51.006;12.436;2022-11-15T23:23:56;4.60;99.90
5196;DHT22;2617;51.006;12.436;2022-11-15T23:28:58;4.50;99.90
5196;DHT22;2617;51.006;12.436;2022-11-15T23:34:00;4.50;99.90
5196;DHT22;2617;51.006;12.436;2022-11-15T23:39:02;4.60;99.90
5196;DHT22;2617;51.006;12.436;2022-11-15T23:44:04;4.60;99.90
5196;DHT22;2617;51.006;12.436;2022-11-15T23:49:06;4.60;99.90
5196;DHT22;2617;51.006;12.436;2022-11-15T23:54:08;4.50;99.90
5196;DHT22;2617;51.006;12.436;2022-11-15T23:59:10;4.50;99.90
